Airfield :
LOGIN :

Register | Disclaimer

   EN    FR    IT 

 










Legend :    VFR   Marginal VFR   IFR   Intensive IFR   Very Intensive IFR
Visi :
Ceiling :
>= 8 km
>= 3000ft
5 to 8 km
1000 to 3000 ft
1500m to 5 km
500 to 1000 ft
800 to 1500m
200 to 500 ft
< 800m
< 200 ft
Symbols :   Thunderstorms  Fog  Heavy snow  Heavy precipitations  Wind > 20 kt
SIGMETs :     Misc.  Thunderstorms  Icing  Turbulence  Mountain Waves  Volcanic Ashes






- Airport Elevation : 6 ft
- IATA code : PSA


LIRP - Galileo Galilei Pisa

CURRENT METAR :
  • 252045Z 12003KT 9999 SCT025 18/18 Q1010 NOSIG

EXPIRED METARs :
  • 252015Z 12003KT 9999 SCT020 SCT080 18/18 Q1010 NOSIG
  • 251945Z 12005KT 9999 FEW025 18/17 Q1010 NOSIG
  • 251915Z 11006KT 9999 FEW020 18/18 Q1010 NOSIG
  • 251845Z 12003KT 9999 FEW030 19/18 Q1009 NOSIG
  • 251815Z 12004KT 9999 FEW030 20/18 Q1009 NOSIG

TAF TAF LIRP
Valid from the 25 at 18:00 until the 26 at 18:00 UTC


251700Z 2518/2618 13008KT 9999 FEW030 SCT070
BECMG 2518/2520 29005KT
BECMG 2600/2602 12007KT
TEMPO 2602/2605 5000 BR
BECMG 2604/2606 SCT030
BECMG 2610/2612 24012KT
TEMPO 2612/2618 5000 SHRA FEW020CB BKN030



MET'MAP, your aeronautical weather chart ! - Copyright ORBIFLY December 2007 - Disclaimer

ORBIFLY MET'MAP TEAM :

Programming & Development : Alexandra Zaïnal
Original concept : Baudouin d'Aumeries
Technical & hardware support : Manuel Goepfert
Assistance : Marc-Olivier Méhu




SOURCES & CREDITS :

   NOAA